Time;durP1;ratioP1;P1;durP2;ratioP2;P2;SDS_P1;SDS_P2;PMS_P1;PMS_P2;Temp;Humidity;BMP_temperature;BMP_pressure;BME280_temperature;BME280_humidity;BME280_pressure;Samples;Min_cycle;Max_cycle;Signal;HPM_P1;HPM_P2
2023/04/21 00:01:07;;;;;;;43.63;39.13;;;;;;;;;;5037748;28;20505;-81
2023/04/21 00:03:36;;;;;;;45.40;40.80;;;;;;;;;;5037101;28;20455;-81
2023/04/21 00:06:05;;;;;;;36.00;32.20;;;;;;;;;;5036594;28;20475;-81
2023/04/21 00:08:32;;;;;;;39.37;35.63;;;;;;;;;;5037457;28;20515;-82
2023/04/21 00:11:00;;;;;;;40.87;36.70;;;;;;;;;;5037697;28;20463;-82
2023/04/21 00:13:27;;;;;;;42.50;38.27;;;;;;;;;;5038360;28;20459;-81
2023/04/21 00:15:54;;;;;;;42.77;38.57;;;;;;;;;;5037491;28;20476;-82
2023/04/21 00:18:21;;;;;;;41.70;37.27;;;;;;;;;;5037812;28;20497;-82
2023/04/21 00:20:48;;;;;;;38.53;34.97;;;;;;;;;;5043241;28;20940;-82
2023/04/21 00:23:15;;;;;;;43.27;39.00;;;;;;;;;;5044274;28;20437;-82
2023/04/21 00:25:42;;;;;;;39.70;36.03;;;;;;;;;;5046689;28;20429;-83
2023/04/21 00:28:10;;;;;;;37.20;33.83;;;;;;;;;;5046500;28;20545;-82
2023/04/21 00:30:37;;;;;;;41.00;36.70;;;;;;;;;;5046047;28;20471;-82
2023/04/21 00:33:04;;;;;;;40.27;36.30;;;;;;;;;;5046519;28;20444;-82
2023/04/21 00:35:31;;;;;;;41.10;36.97;;;;;;;;;;5046533;28;20451;-82
2023/04/21 00:37:58;;;;;;;40.73;36.77;;;;;;;;;;5045760;28;20439;-82
2023/04/21 00:40:26;;;;;;;37.53;33.23;;;;;;;;;;5044689;28;20483;-82
2023/04/21 00:42:53;;;;;;;41.17;36.77;;;;;;;;;;5045162;28;20430;-82
2023/04/21 00:45:21;;;;;;;40.23;36.40;;;;;;;;;;5044707;28;20451;-82
2023/04/21 00:47:48;;;;;;;40.77;37.07;;;;;;;;;;5044495;28;20819;-82
2023/04/21 00:50:15;;;;;;;44.60;40.30;;;;;;;;;;5043477;28;20562;-82
2023/04/21 00:52:45;;;;;;;40.53;36.33;;;;;;;;;;5044056;28;20493;-81
2023/04/21 00:55:12;;;;;;;40.00;36.30;;;;;;;;;;5044801;28;20417;-82
2023/04/21 00:57:40;;;;;;;37.00;33.70;;;;;;;;;;5044091;28;20447;-82
2023/04/21 01:00:08;;;;;;;39.53;35.67;;;;;;;;;;5051234;28;20553;-82
2023/04/21 01:02:37;;;;;;;42.90;38.70;;;;;;;;;;5057140;28;20461;-82
2023/04/21 01:05:07;;;;;;;38.47;34.20;;;;;;;;;;5057559;28;20439;-82
2023/04/21 01:07:35;;;;;;;36.33;33.00;;;;;;;;;;5046453;28;20419;-82
2023/04/21 01:10:02;;;;;;;40.63;36.57;;;;;;;;;;5045917;28;20858;-82
2023/04/21 01:12:29;;;;;;;42.97;38.87;;;;;;;;;;5046194;28;20468;-82
2023/04/21 01:14:56;;;;;;;42.90;38.23;;;;;;;;;;5044646;28;20442;-81
2023/04/21 01:17:24;;;;;;;37.20;33.53;;;;;;;;;;5044886;28;20447;-82
2023/04/21 01:19:54;;;;;;;43.23;38.93;;;;;;;;;;5044856;28;20514;-82
2023/04/21 01:22:22;;;;;;;38.37;34.67;;;;;;;;;;5044737;28;20456;-82
2023/04/21 01:24:49;;;;;;;40.53;36.30;;;;;;;;;;5044172;28;20460;-81
2023/04/21 01:27:17;;;;;;;40.57;36.57;;;;;;;;;;5044064;28;20492;-82
2023/04/21 01:29:46;;;;;;;34.57;31.57;;;;;;;;;;5044454;28;20576;-82
2023/04/21 01:32:14;;;;;;;40.00;36.00;;;;;;;;;;5043468;28;20450;-82
2023/04/21 01:34:41;;;;;;;40.73;36.43;;;;;;;;;;5043850;28;20415;-82
2023/04/21 01:37:09;;;;;;;37.50;34.30;;;;;;;;;;5042952;28;20452;-81
2023/04/21 01:39:39;;;;;;;39.77;35.70;;;;;;;;;;5042122;28;20481;-82
2023/04/21 01:42:06;;;;;;;39.20;35.17;;;;;;;;;;5043027;28;20490;-81
2023/04/21 01:44:33;;;;;;;38.33;34.40;;;;;;;;;;5043104;28;20422;-81
2023/04/21 01:47:00;;;;;;;38.53;34.87;;;;;;;;;;5042654;28;20917;-82
2023/04/21 01:49:27;;;;;;;35.80;32.57;;;;;;;;;;5042269;28;20508;-82
2023/04/21 01:51:54;;;;;;;36.40;32.90;;;;;;;;;;5042926;28;20451;-82
2023/04/21 01:54:21;;;;;;;39.87;36.10;;;;;;;;;;5042329;28;20445;-82
2023/04/21 01:56:49;;;;;;;32.10;29.27;;;;;;;;;;5041005;28;20475;-82
2023/04/21 01:59:16;;;;;;;38.93;35.03;;;;;;;;;;5042077;28;20768;-82
2023/04/21 02:01:44;;;;;;;36.50;33.00;;;;;;;;;;5042178;28;20940;-81
2023/04/21 02:04:10;;;;;;;37.40;34.23;;;;;;;;;;5041919;28;20820;-82
2023/04/21 02:06:37;;;;;;;33.33;30.07;;;;;;;;;;5040490;28;20497;-82
2023/04/21 02:09:05;;;;;;;37.90;34.27;;;;;;;;;;5041670;28;20487;-82
2023/04/21 02:11:32;;;;;;;33.63;30.63;;;;;;;;;;5041285;28;20507;-81
2023/04/21 02:14:00;;;;;;;37.60;34.33;;;;;;;;;;5041860;28;20521;-81
2023/04/21 02:16:27;;;;;;;37.00;33.20;;;;;;;;;;5041349;28;20444;-82
2023/04/21 02:18:55;;;;;;;34.73;31.57;;;;;;;;;;5040843;28;20461;-81
2023/04/21 02:21:22;;;;;;;38.30;34.60;;;;;;;;;;5040752;28;20434;-81
2023/04/21 02:23:49;;;;;;;39.67;36.00;;;;;;;;;;5040603;28;20982;-82
2023/04/21 02:26:17;;;;;;;38.73;30.27;;;;;;;;;;5041032;28;20472;-82
2023/04/21 02:28:44;;;;;;;36.17;32.47;;;;;;;;;;5040760;28;20499;-82
2023/04/21 02:31:12;;;;;;;38.90;34.93;;;;;;;;;;5042630;28;20462;-82
2023/04/21 02:33:39;;;;;;;39.17;35.47;;;;;;;;;;5042139;28;20456;-81
2023/04/21 02:36:07;;;;;;;39.20;35.43;;;;;;;;;;5040900;28;20471;-81
2023/04/21 02:38:34;;;;;;;36.40;32.70;;;;;;;;;;5041059;28;20525;-82
2023/04/21 02:41:01;;;;;;;36.60;33.10;;;;;;;;;;5041269;28;20426;-81
2023/04/21 02:43:28;;;;;;;32.90;29.87;;;;;;;;;;5042137;28;20426;-82
2023/04/21 02:45:55;;;;;;;37.27;33.83;;;;;;;;;;5039236;28;20545;-81
2023/04/21 02:48:24;;;;;;;39.07;35.37;;;;;;;;;;5040826;28;20440;-82
2023/04/21 02:50:51;;;;;;;36.00;32.43;;;;;;;;;;5040605;28;20460;-82
2023/04/21 02:53:18;;;;;;;38.67;34.97;;;;;;;;;;5040763;28;20521;-81
2023/04/21 02:55:45;;;;;;;38.70;34.87;;;;;;;;;;5039615;28;20414;-82
2023/04/21 02:58:12;;;;;;;38.53;34.70;;;;;;;;;;5040144;28;20445;-80
2023/04/21 03:00:40;;;;;;;36.67;33.13;;;;;;;;;;5040510;28;20481;-82
2023/04/21 03:03:07;;;;;;;34.97;31.77;;;;;;;;;;5040276;28;20487;-82
2023/04/21 03:05:35;;;;;;;39.60;35.87;;;;;;;;;;5039279;28;20975;-81
2023/04/21 03:08:02;;;;;;;39.97;35.97;;;;;;;;;;5040361;28;20512;-82
2023/04/21 03:10:29;;;;;;;39.43;35.33;;;;;;;;;;5039372;28;20494;-82
2023/04/21 03:12:56;;;;;;;40.07;36.13;;;;;;;;;;5040770;28;20462;-81
2023/04/21 03:15:23;;;;;;;38.30;34.77;;;;;;;;;;5039338;28;20429;-82
2023/04/21 03:17:50;;;;;;;42.10;38.20;;;;;;;;;;5038236;28;21008;-82
2023/04/21 03:20:17;;;;;;;42.93;38.80;;;;;;;;;;5039379;28;20525;-82
2023/04/21 03:22:46;;;;;;;40.90;36.97;;;;;;;;;;5039849;28;20447;-81
2023/04/21 03:25:13;;;;;;;39.43;35.80;;;;;;;;;;5039994;28;20472;-82
2023/04/21 03:27:40;;;;;;;41.90;37.70;;;;;;;;;;5039463;28;20455;-82
2023/04/21 03:30:08;;;;;;;41.27;37.53;;;;;;;;;;5039622;28;20466;-82
2023/04/21 03:32:34;;;;;;;40.13;36.27;;;;;;;;;;5040219;28;20459;-82
2023/04/21 03:35:01;;;;;;;39.27;35.77;;;;;;;;;;5039606;28;20497;-81
2023/04/21 03:37:28;;;;;;;43.27;39.27;;;;;;;;;;5039308;28;20430;-81
2023/04/21 03:39:57;;;;;;;42.70;38.10;;;;;;;;;;5039930;28;20492;-81
2023/04/21 03:42:25;;;;;;;42.53;38.63;;;;;;;;;;5039777;28;20452;-81
2023/04/21 03:44:52;;;;;;;39.80;36.00;;;;;;;;;;5039633;28;20475;-80
2023/04/21 03:47:18;;;;;;;42.73;38.37;;;;;;;;;;5039286;28;21155;-82
2023/04/21 03:49:45;;;;;;;42.40;38.17;;;;;;;;;;5039620;28;20474;-82
2023/04/21 03:52:12;;;;;;;43.27;38.97;;;;;;;;;;5038913;28;20494;-81
2023/04/21 03:54:39;;;;;;;41.97;37.80;;;;;;;;;;5035963;28;20918;-82
2023/04/21 03:57:08;;;;;;;42.83;37.73;;;;;;;;;;5034539;28;20480;-81
2023/04/21 03:59:35;;;;;;;44.87;40.40;;;;;;;;;;5036915;28;20475;-81
2023/04/21 04:02:02;;;;;;;41.40;37.40;;;;;;;;;;5038060;28;20451;-81
2023/04/21 04:04:29;;;;;;;41.27;37.27;;;;;;;;;;5037873;28;20919;-81
2023/04/21 04:06:56;;;;;;;42.57;38.17;;;;;;;;;;5037381;28;20909;-82
2023/04/21 04:09:23;;;;;;;38.60;34.97;;;;;;;;;;5037410;28;20461;-80
2023/04/21 04:11:50;;;;;;;39.93;36.03;;;;;;;;;;5039555;28;20430;-81
2023/04/21 04:14:18;;;;;;;45.17;39.07;;;;;;;;;;5039829;28;20430;-79
2023/04/21 04:16:45;;;;;;;40.23;36.47;;;;;;;;;;5037957;28;20430;-80
2023/04/21 04:19:12;;;;;;;36.73;33.07;;;;;;;;;;5037955;28;20463;-79
2023/04/21 04:21:39;;;;;;;40.60;36.70;;;;;;;;;;5038474;28;20835;-80
2023/04/21 04:24:07;;;;;;;40.43;36.30;;;;;;;;;;5038883;28;20422;-79
2023/04/21 04:26:34;;;;;;;40.57;36.30;;;;;;;;;;5037880;28;20434;-80
2023/04/21 04:29:01;;;;;;;37.00;33.27;;;;;;;;;;5038019;28;20846;-80
2023/04/21 04:31:29;;;;;;;43.03;38.53;;;;;;;;;;5038431;28;20510;-80
2023/04/21 04:33:56;;;;;;;43.13;38.90;;;;;;;;;;5039270;28;20439;-80
2023/04/21 04:36:24;;;;;;;37.00;33.60;;;;;;;;;;5038297;28;21272;-79
2023/04/21 04:38:51;;;;;;;41.57;37.43;;;;;;;;;;5038931;28;20886;-80
2023/04/21 04:41:18;;;;;;;41.50;37.60;;;;;;;;;;5038765;28;20471;-80
2023/04/21 04:43:46;;;;;;;42.17;37.60;;;;;;;;;;5039166;28;20455;-79
2023/04/21 04:46:13;;;;;;;44.50;39.70;;;;;;;;;;5038603;28;20827;-80
2023/04/21 04:48:41;;;;;;;39.37;35.83;;;;;;;;;;5039177;28;20516;-80
2023/04/21 04:51:08;;;;;;;40.73;36.57;;;;;;;;;;5039159;28;20507;-80
2023/04/21 04:53:35;;;;;;;40.33;36.67;;;;;;;;;;5039375;28;20426;-80
2023/04/21 04:56:02;;;;;;;42.40;38.03;;;;;;;;;;5038323;28;20441;-79
2023/04/21 04:58:29;;;;;;;40.70;36.80;;;;;;;;;;5039191;28;20471;-80
2023/04/21 05:00:56;;;;;;;41.83;37.83;;;;;;;;;;5039316;28;20425;-80
2023/04/21 05:03:23;;;;;;;41.90;37.60;;;;;;;;;;5039834;28;20422;-81
2023/04/21 05:05:53;;;;;;;40.23;35.97;;;;;;;;;;5038846;28;20892;-80
2023/04/21 05:08:20;;;;;;;42.23;38.03;;;;;;;;;;5038287;28;21010;-80
2023/04/21 05:10:47;;;;;;;43.17;38.73;;;;;;;;;;5039500;28;20458;-80
2023/04/21 05:13:17;;;;;;;40.87;36.43;;;;;;;;;;5039627;28;20438;-79
2023/04/21 05:15:44;;;;;;;40.23;36.40;;;;;;;;;;5038922;28;21380;-80
2023/04/21 05:18:11;;;;;;;40.03;36.33;;;;;;;;;;5038920;28;20451;-80
2023/04/21 05:20:41;;;;;;;39.23;35.63;;;;;;;;;;5044293;28;20500;-81
2023/04/21 05:23:09;;;;;;;37.93;34.43;;;;;;;;;;5047538;28;20534;-80
2023/04/21 05:25:37;;;;;;;38.23;34.67;;;;;;;;;;5045468;28;20472;-80
2023/04/21 05:28:04;;;;;;;39.47;35.37;;;;;;;;;;5044438;28;20494;-80
2023/04/21 05:30:31;;;;;;;39.23;35.43;;;;;;;;;;5042470;28;20549;-80
2023/04/21 05:32:58;;;;;;;35.40;32.23;;;;;;;;;;5038630;28;20500;-80
2023/04/21 05:35:25;;;;;;;38.47;34.30;;;;;;;;;;5038679;28;20442;-80
2023/04/21 05:37:52;;;;;;;38.60;34.93;;;;;;;;;;5040139;28;20426;-81
2023/04/21 05:40:21;;;;;;;37.70;34.07;;;;;;;;;;5043275;28;20852;-79
2023/04/21 05:42:48;;;;;;;36.10;32.87;;;;;;;;;;5057511;28;20447;-80
2023/04/21 05:45:15;;;;;;;36.80;33.63;;;;;;;;;;5058826;28;20448;-79
2023/04/21 05:47:42;;;;;;;38.37;34.63;;;;;;;;;;5052421;28;20440;-79
2023/04/21 05:50:09;;;;;;;35.80;32.60;;;;;;;;;;5042281;28;20519;-80
2023/04/21 05:52:36;;;;;;;37.37;33.93;;;;;;;;;;5041687;28;20554;-80
2023/04/21 05:55:04;;;;;;;36.43;33.13;;;;;;;;;;5042462;28;20422;-80
2023/04/21 05:57:32;;;;;;;37.37;34.20;;;;;;;;;;5042044;28;20426;-80
2023/04/21 05:59:59;;;;;;;34.77;31.97;;;;;;;;;;5040351;28;20446;-80
2023/04/21 06:02:26;;;;;;;38.83;35.20;;;;;;;;;;5040681;28;20447;-79
2023/04/21 06:04:53;;;;;;;38.17;34.80;;;;;;;;;;5041731;28;20434;-80
2023/04/21 06:07:20;;;;;;;38.00;34.30;;;;;;;;;;5040312;28;20440;-80
2023/04/21 06:09:50;;;;;;;37.03;33.70;;;;;;;;;;5040881;28;20458;-79
2023/04/21 06:12:17;;;;;;;38.33;34.50;;;;;;;;;;5040807;28;20422;-81
2023/04/21 06:14:45;;;;;;;37.83;34.50;;;;;;;;;;5041930;28;20425;-80
2023/04/21 06:17:16;;;;;;;38.20;34.93;;;;;;;;;;5040056;28;20463;-80
2023/04/21 06:19:43;;;;;;;37.90;34.60;;;;;;;;;;5041396;28;20468;-80
2023/04/21 06:22:10;;;;;;;38.47;34.70;;;;;;;;;;5038839;28;20446;-89
2023/04/21 06:24:37;;;;;;;37.17;33.97;;;;;;;;;;5018438;28;20460;-87
2023/04/21 06:27:04;;;;;;;36.97;33.77;;;;;;;;;;5017126;28;20610;-89
2023/04/21 06:29:31;;;;;;;36.57;33.27;;;;;;;;;;5017445;28;20867;-84
2023/04/21 06:31:59;;;;;;;36.63;33.40;;;;;;;;;;5019530;28;20449;-88
2023/04/21 06:34:26;;;;;;;35.73;32.73;;;;;;;;;;5016594;28;20431;-86
2023/04/21 06:36:53;;;;;;;34.90;31.80;;;;;;;;;;5016290;28;20456;-84
2023/04/21 06:39:20;;;;;;;37.43;34.27;;;;;;;;;;5015127;28;20475;-84
2023/04/21 06:41:47;;;;;;;35.67;32.70;;;;;;;;;;5016607;28;20445;-84
2023/04/21 06:44:15;;;;;;;35.60;32.57;;;;;;;;;;5015709;28;20419;-86
2023/04/21 06:46:42;;;;;;;35.20;32.07;;;;;;;;;;5015775;28;20415;-85
2023/04/21 06:49:10;;;;;;;35.07;32.13;;;;;;;;;;5014422;28;20451;-85
2023/04/21 06:51:37;;;;;;;33.33;30.60;;;;;;;;;;5014760;28;20467;-83
2023/04/21 06:54:05;;;;;;;34.00;31.10;;;;;;;;;;5015478;28;21035;-87
2023/04/21 06:56:33;;;;;;;33.67;30.77;;;;;;;;;;5013597;28;20437;-86
2023/04/21 06:59:00;;;;;;;34.53;31.20;;;;;;;;;;5016057;28;20447;-82
2023/04/21 07:01:27;;;;;;;33.47;30.67;;;;;;;;;;5018403;28;20431;-86
2023/04/21 07:03:54;;;;;;;34.93;31.87;;;;;;;;;;5014903;28;20498;-84
2023/04/21 07:06:22;;;;;;;49.83;45.70;;;;;;;;;;5016336;28;20472;-82
2023/04/21 07:08:50;;;;;;;34.47;30.77;;;;;;;;;;5015990;28;20455;-83
2023/04/21 07:11:17;;;;;;;34.40;31.20;;;;;;;;;;5017196;28;20459;-88
2023/04/21 07:13:44;;;;;;;29.73;27.13;;;;;;;;;;5016562;28;20475;-88
2023/04/21 07:16:11;;;;;;;32.97;30.07;;;;;;;;;;5018606;28;20428;-83
2023/04/21 07:18:40;;;;;;;34.40;31.47;;;;;;;;;;5035595;28;20446;-83
2023/04/21 07:21:07;;;;;;;32.17;29.67;;;;;;;;;;5035690;28;20471;-85
2023/04/21 07:23:36;;;;;;;34.57;31.03;;;;;;;;;;5034955;28;20455;-81
2023/04/21 07:26:03;;;;;;;33.87;30.93;;;;;;;;;;5030115;28;20452;-81
2023/04/21 07:28:30;;;;;;;32.97;30.27;;;;;;;;;;5035000;28;21167;-81
2023/04/21 07:30:57;;;;;;;31.13;28.53;;;;;;;;;;5035311;28;20450;-82
2023/04/21 07:33:24;;;;;;;33.00;29.70;;;;;;;;;;5034379;28;20477;-82
2023/04/21 07:35:51;;;;;;;34.53;31.37;;;;;;;;;;5034304;28;20435;-82
2023/04/21 07:38:18;;;;;;;35.10;31.90;;;;;;;;;;5034628;28;20460;-83
2023/04/21 07:40:46;;;;;;;35.33;32.33;;;;;;;;;;5034047;28;20503;-81
2023/04/21 07:43:13;;;;;;;32.93;30.10;;;;;;;;;;5035329;28;20456;-82
2023/04/21 07:45:41;;;;;;;33.80;30.60;;;;;;;;;;5035164;28;20479;-80
2023/04/21 07:48:08;;;;;;;34.77;31.80;;;;;;;;;;5034585;28;20982;-80
2023/04/21 07:50:35;;;;;;;31.20;28.43;;;;;;;;;;5034612;28;21067;-82
2023/04/21 07:53:02;;;;;;;33.47;30.77;;;;;;;;;;5034834;28;20643;-83
2023/04/21 07:55:30;;;;;;;34.27;31.30;;;;;;;;;;5034185;28;20870;-83
2023/04/21 07:57:58;;;;;;;33.43;30.30;;;;;;;;;;5035491;28;20411;-81
2023/04/21 08:00:25;;;;;;;32.53;29.73;;;;;;;;;;5037051;28;20438;-82
2023/04/21 08:02:52;;;;;;;32.47;29.70;;;;;;;;;;5037707;28;21015;-83
2023/04/21 08:05:19;;;;;;;32.80;30.40;;;;;;;;;;5037335;28;20422;-83
2023/04/21 08:07:46;;;;;;;35.13;32.37;;;;;;;;;;5037075;28;20441;-82
2023/04/21 08:10:13;;;;;;;36.17;32.70;;;;;;;;;;5037911;28;20936;-82
2023/04/21 08:12:40;;;;;;;35.80;32.80;;;;;;;;;;5036524;28;20547;-81
2023/04/21 08:15:11;;;;;;;35.90;32.60;;;;;;;;;;5037629;28;20786;-82
2023/04/21 08:17:38;;;;;;;32.63;30.13;;;;;;;;;;5035061;28;20461;-82
2023/04/21 08:20:05;;;;;;;33.20;30.60;;;;;;;;;;5028574;28;20505;-83
2023/04/21 08:22:32;;;;;;;33.70;30.70;;;;;;;;;;5016511;28;20513;-81
2023/04/21 08:24:59;;;;;;;32.83;30.03;;;;;;;;;;5010419;28;20529;-82
2023/04/21 08:27:26;;;;;;;32.13;29.73;;;;;;;;;;5010396;28;20427;-82
2023/04/21 08:29:53;;;;;;;33.90;31.17;;;;;;;;;;5012070;28;20959;-86
2023/04/21 08:32:23;;;;;;;34.20;31.20;;;;;;;;;;5012358;28;20459;-85
2023/04/21 08:34:50;;;;;;;34.03;30.80;;;;;;;;;;5012720;28;20842;-86
2023/04/21 08:37:18;;;;;;;35.40;32.33;;;;;;;;;;5012061;28;20450;-86
2023/04/21 08:39:45;;;;;;;32.57;29.90;;;;;;;;;;5013015;28;20969;-87
2023/04/21 08:42:13;;;;;;;35.00;31.97;;;;;;;;;;5012300;28;20415;-87
2023/04/21 08:44:40;;;;;;;32.63;30.03;;;;;;;;;;5014588;28;20462;-87
2023/04/21 08:47:10;;;;;;;34.10;31.40;;;;;;;;;;5015806;28;20930;-81
2023/04/21 08:49:39;;;;;;;31.60;29.10;;;;;;;;;;5017583;28;20959;-80
2023/04/21 08:52:06;;;;;;;33.83;31.13;;;;;;;;;;5018229;28;20473;-81
2023/04/21 08:54:35;;;;;;;35.40;32.00;;;;;;;;;;5019670;28;20477;-81
2023/04/21 08:57:03;;;;;;;33.17;30.30;;;;;;;;;;5020681;28;20428;-81
2023/04/21 08:59:30;;;;;;;33.23;30.50;;;;;;;;;;5020918;28;20492;-81
2023/04/21 09:02:07;;;;;;;34.30;31.10;;;;;;;;;;5022096;28;20477;-81
2023/04/21 09:04:34;;;;;;;33.10;30.70;;;;;;;;;;5023543;28;20795;-80
2023/04/21 09:07:02;;;;;;;31.47;29.20;;;;;;;;;;5038692;28;20411;-81
2023/04/21 09:09:30;;;;;;;32.87;30.37;;;;;;;;;;5038431;28;20487;-81
2023/04/21 09:11:57;;;;;;;31.70;29.33;;;;;;;;;;5039146;28;20481;-81
2023/04/21 09:14:29;;;;;;;31.27;28.80;;;;;;;;;;5041064;28;20434;-80
2023/04/21 09:17:00;;;;;;;32.60;30.00;;;;;;;;;;5040597;28;20411;-80
2023/04/21 09:19:27;;;;;;;31.87;29.40;;;;;;;;;;5039518;28;20436;-81
2023/04/21 09:21:54;;;;;;;32.37;29.67;;;;;;;;;;5039890;28;20482;-81
2023/04/21 09:24:23;;;;;;;57.63;53.80;;;;;;;;;;5041417;28;20823;-81
2023/04/21 09:26:52;;;;;;;372.23;344.00;;;;;;;;;;5047224;28;20441;-81
2023/04/21 09:29:19;;;;;;;31.57;29.20;;;;;;;;;;5046467;28;20476;-81
2023/04/21 09:31:45;;;;;;;287.33;263.20;;;;;;;;;;5044931;28;20479;-81
2023/04/21 09:34:19;;;;;;;366.10;313.63;;;;;;;;;;5045663;28;20447;-80
2023/04/21 09:36:47;;;;;;;471.13;329.87;;;;;;;;;;5045168;28;20452;-80
2023/04/21 09:39:14;;;;;;;474.60;317.40;;;;;;;;;;5043286;28;21279;-81
2023/04/21 09:41:44;;;;;;;485.07;306.50;;;;;;;;;;5044703;28;20474;-81
2023/04/21 09:44:11;;;;;;;400.30;287.57;;;;;;;;;;5044641;28;20452;-81
2023/04/21 09:46:38;;;;;;;381.23;281.40;;;;;;;;;;5043378;28;20439;-81
2023/04/21 09:49:05;;;;;;;399.97;348.47;;;;;;;;;;5043673;28;20468;-81
2023/04/21 09:51:32;;;;;;;32.23;29.53;;;;;;;;;;5043978;28;20483;-80
2023/04/21 09:54:00;;;;;;;320.40;294.53;;;;;;;;;;5043391;28;20451;-78
2023/04/21 09:56:28;;;;;;;380.13;324.53;;;;;;;;;;5042935;28;20455;-79
2023/04/21 09:58:58;;;;;;;316.40;294.93;;;;;;;;;;5043489;28;20498;-79
2023/04/21 10:01:27;;;;;;;414.07;342.90;;;;;;;;;;5044005;28;20952;-79
2023/04/21 10:03:54;;;;;;;394.33;306.60;;;;;;;;;;5043332;28;21054;-78
2023/04/21 10:06:21;;;;;;;433.60;378.50;;;;;;;;;;5041343;28;20975;-78
2023/04/21 10:08:50;;;;;;;421.47;356.47;;;;;;;;;;5043158;28;20477;-79
2023/04/21 10:11:17;;;;;;;405.00;362.93;;;;;;;;;;5043065;28;20487;-79
2023/04/21 10:13:44;;;;;;;404.40;359.80;;;;;;;;;;5043267;28;20531;-78
2023/04/21 10:16:12;;;;;;;375.37;338.93;;;;;;;;;;5041138;28;20472;-79
2023/04/21 10:18:43;;;;;;;359.93;325.33;;;;;;;;;;5041867;28;20523;-79
2023/04/21 10:21:11;;;;;;;30.17;27.80;;;;;;;;;;5040694;28;20463;-78
2023/04/21 10:23:39;;;;;;;67.03;62.77;;;;;;;;;;5040194;28;20459;-78
2023/04/21 10:26:09;;;;;;;28.13;26.23;;;;;;;;;;5039360;28;20468;-79
2023/04/21 10:28:43;;;;;;;30.57;28.17;;;;;;;;;;5049849;28;20456;-79
2023/04/21 10:31:21;;;;;;;279.27;260.70;;;;;;;;;;5056116;28;20476;-78
2023/04/21 10:34:07;;;;;;;30.47;28.27;;;;;;;;;;5055476;28;20961;-78
2023/04/21 10:36:35;;;;;;;29.07;26.70;;;;;;;;;;5044109;28;20440;-79
2023/04/21 10:39:02;;;;;;;32.37;29.80;;;;;;;;;;5042936;28;20484;-79
2023/04/21 10:41:30;;;;;;;30.00;27.60;;;;;;;;;;5043708;28;20434;-79
2023/04/21 10:43:59;;;;;;;30.60;28.20;;;;;;;;;;5042463;28;20443;-79
2023/04/21 10:46:34;;;;;;;29.33;27.37;;;;;;;;;;5039126;28;20462;-78
2023/04/21 10:49:05;;;;;;;30.10;27.43;;;;;;;;;;5043713;28;20456;-79
2023/04/21 10:51:32;;;;;;;27.87;26.00;;;;;;;;;;5042783;28;20487;-79
2023/04/21 10:54:00;;;;;;;28.77;26.20;;;;;;;;;;5041546;28;20538;-79
2023/04/21 10:56:27;;;;;;;28.70;26.50;;;;;;;;;;5040921;28;20803;-79
2023/04/21 10:58:54;;;;;;;30.20;27.73;;;;;;;;;;5041658;28;20446;-79
2023/04/21 11:01:21;;;;;;;31.70;28.93;;;;;;;;;;5041510;28;20475;-79
2023/04/21 11:03:49;;;;;;;30.57;27.93;;;;;;;;;;5040568;28;20509;-79
2023/04/21 11:06:17;;;;;;;29.63;27.53;;;;;;;;;;5038334;28;20438;-78
2023/04/21 11:08:55;;;;;;;29.80;27.30;;;;;;;;;;5037927;28;20469;-78
2023/04/21 11:11:23;;;;;;;29.10;27.03;;;;;;;;;;5039173;28;20993;-78
2023/04/21 11:13:50;;;;;;;29.27;27.07;;;;;;;;;;5038830;28;20537;-78
2023/04/21 11:16:17;;;;;;;29.03;26.97;;;;;;;;;;5037572;28;20442;-78
2023/04/21 11:18:45;;;;;;;27.73;25.70;;;;;;;;;;5038283;28;20450;-80
2023/04/21 11:21:16;;;;;;;26.77;25.00;;;;;;;;;;5035964;28;20808;-78
2023/04/21 11:23:54;;;;;;;28.37;26.07;;;;;;;;;;5038510;28;20427;-79
2023/04/21 11:26:31;;;;;;;28.90;27.00;;;;;;;;;;5039128;28;20443;-80
2023/04/21 11:29:00;;;;;;;27.90;25.90;;;;;;;;;;5038590;28;20516;-78
2023/04/21 11:31:29;;;;;;;27.03;25.27;;;;;;;;;;5039181;28;20467;-79
2023/04/21 11:33:57;;;;;;;26.27;24.57;;;;;;;;;;5039546;28;20454;-78
2023/04/21 11:36:26;;;;;;;27.27;25.60;;;;;;;;;;5038784;28;20479;-79
2023/04/21 11:38:53;;;;;;;27.80;25.97;;;;;;;;;;5038363;28;20539;-78
2023/04/21 11:41:21;;;;;;;29.03;26.17;;;;;;;;;;5038525;28;20464;-79
2023/04/21 11:43:48;;;;;;;25.77;24.00;;;;;;;;;;5039784;28;20463;-79
2023/04/21 11:46:17;;;;;;;25.83;24.10;;;;;;;;;;5038867;28;20556;-79
2023/04/21 11:48:45;;;;;;;25.87;24.17;;;;;;;;;;5034781;28;21007;-77
2023/04/21 11:51:15;;;;;;;28.03;25.93;;;;;;;;;;5032701;28;20951;-77
2023/04/21 11:53:44;;;;;;;25.93;24.10;;;;;;;;;;5032739;28;20425;-78
2023/04/21 11:56:11;;;;;;;26.20;24.40;;;;;;;;;;5032347;28;20474;-77
2023/04/21 11:58:38;;;;;;;27.47;25.17;;;;;;;;;;5034243;28;20447;-77
2023/04/21 12:01:09;;;;;;;26.60;24.90;;;;;;;;;;5034543;28;20423;-78
2023/04/21 12:03:36;;;;;;;26.10;24.30;;;;;;;;;;5033840;28;20418;-77
2023/04/21 12:06:03;;;;;;;25.97;24.37;;;;;;;;;;5033011;28;20472;-77
2023/04/21 12:08:30;;;;;;;27.00;24.93;;;;;;;;;;5033018;28;20504;-78
2023/04/21 12:10:59;;;;;;;25.77;24.03;;;;;;;;;;5031720;28;20638;-77
2023/04/21 12:13:27;;;;;;;26.60;24.50;;;;;;;;;;5032579;28;20544;-77
2023/04/21 12:15:54;;;;;;;26.43;24.73;;;;;;;;;;5032069;28;20459;-77
2023/04/21 12:18:21;;;;;;;27.23;24.90;;;;;;;;;;5034008;28;20514;-77
2023/04/21 12:20:51;;;;;;;26.47;24.77;;;;;;;;;;5036316;28;20922;-77
2023/04/21 12:23:19;;;;;;;26.40;24.77;;;;;;;;;;5036598;28;20846;-77
2023/04/21 12:25:46;;;;;;;25.90;24.33;;;;;;;;;;5035740;28;20922;-77
2023/04/21 12:28:16;;;;;;;27.67;25.77;;;;;;;;;;5036333;28;20473;-77
2023/04/21 12:30:43;;;;;;;25.60;23.70;;;;;;;;;;5036752;28;20530;-77
2023/04/21 12:33:12;;;;;;;26.40;24.63;;;;;;;;;;5036235;28;20483;-77
2023/04/21 12:35:39;;;;;;;26.80;25.00;;;;;;;;;;5035229;28;21271;-77
2023/04/21 12:38:06;;;;;;;27.33;25.50;;;;;;;;;;5036532;28;20778;-77
2023/04/21 12:40:33;;;;;;;24.70;23.20;;;;;;;;;;5036585;28;20448;-77
2023/04/21 12:43:00;;;;;;;26.33;24.63;;;;;;;;;;5038707;28;20420;-79
2023/04/21 12:45:30;;;;;;;26.57;24.77;;;;;;;;;;5037463;28;20441;-78
2023/04/21 12:47:58;;;;;;;26.03;24.33;;;;;;;;;;5035943;28;20516;-78
2023/04/21 12:50:25;;;;;;;26.83;24.80;;;;;;;;;;5036167;28;20499;-79
2023/04/21 12:52:54;;;;;;;25.27;23.67;;;;;;;;;;5034005;28;20515;-83
2023/04/21 12:55:21;;;;;;;26.20;24.53;;;;;;;;;;5020267;28;20552;-81
2023/04/21 12:57:49;;;;;;;25.00;23.30;;;;;;;;;;5015011;28;20532;-78
2023/04/21 13:00:16;;;;;;;26.20;24.20;;;;;;;;;;5033407;28;20492;-81
2023/04/21 13:02:44;;;;;;;24.90;23.37;;;;;;;;;;5034912;28;20455;-84
2023/04/21 13:05:12;;;;;;;26.50;24.90;;;;;;;;;;5035288;28;20900;-78
2023/04/21 13:07:40;;;;;;;25.17;23.50;;;;;;;;;;5033370;28;20816;-78
2023/04/21 13:10:07;;;;;;;26.17;24.33;;;;;;;;;;5033486;28;20484;-78
2023/04/21 13:12:34;;;;;;;26.27;24.67;;;;;;;;;;5035268;28;20518;-78
2023/04/21 13:15:01;;;;;;;25.37;23.77;;;;;;;;;;5035451;28;20516;-78
2023/04/21 13:17:29;;;;;;;26.00;24.30;;;;;;;;;;5035447;28;20431;-79
2023/04/21 13:19:57;;;;;;;24.50;23.10;;;;;;;;;;5037625;28;20507;-79
2023/04/21 13:22:24;;;;;;;26.47;24.67;;;;;;;;;;5037768;28;20517;-79
2023/04/21 13:24:51;;;;;;;26.43;24.70;;;;;;;;;;5036564;28;20785;-79
2023/04/21 13:27:18;;;;;;;25.50;23.70;;;;;;;;;;5036478;28;20494;-79
2023/04/21 13:29:46;;;;;;;25.43;23.57;;;;;;;;;;5036246;28;20473;-79
2023/04/21 13:32:13;;;;;;;25.53;23.93;;;;;;;;;;5037168;28;20479;-80
2023/04/21 13:34:40;;;;;;;27.17;25.23;;;;;;;;;;5037024;28;20425;-79
2023/04/21 13:37:11;;;;;;;25.30;23.60;;;;;;;;;;5035497;28;20473;-79
2023/04/21 13:39:38;;;;;;;26.87;25.20;;;;;;;;;;5036618;28;20444;-78
2023/04/21 13:42:05;;;;;;;27.07;24.87;;;;;;;;;;5036601;28;20540;-84
2023/04/21 13:44:32;;;;;;;26.17;24.37;;;;;;;;;;5037115;28;20554;-85
2023/04/21 13:46:59;;;;;;;26.33;24.60;;;;;;;;;;5032550;28;20495;-78
2023/04/21 13:49:27;;;;;;;25.23;23.57;;;;;;;;;;5030921;28;20509;-78
2023/04/21 13:51:54;;;;;;;25.30;23.50;;;;;;;;;;5031650;28;20985;-78
2023/04/21 13:54:23;;;;;;;26.00;23.67;;;;;;;;;;5031576;28;20886;-78
2023/04/21 13:56:50;;;;;;;24.90;23.30;;;;;;;;;;5031371;28;20483;-78
2023/04/21 13:59:19;;;;;;;24.70;23.10;;;;;;;;;;5031532;28;20447;-78
2023/04/21 14:01:47;;;;;;;26.33;24.63;;;;;;;;;;5030789;28;20455;-78
2023/04/21 14:04:14;;;;;;;24.60;22.90;;;;;;;;;;5031149;28;20464;-78
2023/04/21 14:06:41;;;;;;;24.87;23.27;;;;;;;;;;5030784;28;20538;-78
2023/04/21 14:09:08;;;;;;;24.87;23.27;;;;;;;;;;5031202;28;20521;-77
2023/04/21 14:11:36;;;;;;;26.17;24.13;;;;;;;;;;5031248;28;20473;-78
2023/04/21 14:14:04;;;;;;;25.33;23.40;;;;;;;;;;5030314;28;20503;-76
2023/04/21 14:16:31;;;;;;;26.63;24.90;;;;;;;;;;5035882;28;20458;-79
2023/04/21 14:18:58;;;;;;;24.40;22.80;;;;;;;;;;5037458;28;20478;-79